Key West International Airport Key West US
ICAO: KEYW
IATA: EYW
Category: Medium
Scheduled Services: Yes

Elevation: 3 ft
TransAlt. 18000 ft.

Airport Communications:
NAVY KEY WEST:124.45
ASOS:119.65
ATIS:119.675
CLNC DEL:121.9
CTAF:118.2
MIAMI RDO:122.2
GND:121.9
TWR:118.2
UNICOM:122.95

KEYW Zoom In..

If Map Doesn't Load, Click Here

Runways:

(A) RW 09 length 4801 ft width 100 ft
---- / hdg 93

(B) RW 27 length 4801 ft width 100 ft
---- / hdg 273

Location; KEYW
Day. 23 / Time. 20.53 Zulu
* Altimeter: 29.92
* Temperature: 32° c. 89.6°f.
* Wind from: 120° Speed 05 kn.
Dewpoint: 24° c.
Visibility: 10 Statute Miles.
Clouds: Scattered 2800 ft.

KEYW 232053Z 12005KT 10SM SCT028 32/24 A2992 RMK AO2 SLP132 T03170239 56016


Wind From 120°
Speed 05 kn.

 
 
jpsmedia.com for Web Design worldairports.se 2018   terms of use